createdAt,value
2024-03-12T00:01:09.866Z,95461.44
2024-03-12T00:03:13.049Z,95458.63
2024-03-12T00:05:16.911Z,95461.22
2024-03-12T00:07:23.131Z,95462.44
2024-03-12T00:09:28.270Z,95464.78
2024-03-12T00:11:31.248Z,95466.94
2024-03-12T00:13:33.055Z,95462.78
2024-03-12T00:15:37.398Z,95468.72
2024-03-12T00:17:40.717Z,95466.16
2024-03-12T00:19:43.459Z,95473.19
2024-03-12T00:21:46.820Z,95468.25
2024-03-12T00:23:49.179Z,95471.63
2024-03-12T00:25:53.239Z,95473.66
2024-03-12T00:27:57.217Z,95474.88
2024-03-12T00:29:59.010Z,95471.75
2024-03-12T00:32:01.704Z,95475.22
2024-03-12T00:34:05.988Z,95472.53
2024-03-12T00:36:09.184Z,95479.69
2024-03-12T00:38:11.905Z,95477.56
2024-03-12T00:40:17.866Z,95480.59
2024-03-12T00:42:23.989Z,95477.47
2024-03-12T00:44:25.969Z,95474.09
2024-03-12T00:46:28.749Z,95478.91
2024-03-12T00:48:31.442Z,95472.50
2024-03-12T00:50:33.485Z,95475.31
2024-03-12T00:52:37.402Z,95483.69
2024-03-12T00:54:40.198Z,95483.69
2024-03-12T00:56:42.972Z,95485.38
2024-03-12T00:58:47.032Z,95488.97
2024-03-12T01:00:51.566Z,95488.16
2024-03-12T01:02:55.888Z,95488.59
2024-03-12T01:04:58.045Z,95489.50
2024-03-12T01:07:01.204Z,95486.16
2024-03-12T01:09:07.378Z,95494.66
2024-03-12T01:11:10.674Z,95485.56
2024-03-12T01:13:13.513Z,95485.56
2024-03-12T01:15:17.106Z,95491.94
2024-03-12T01:17:21.801Z,95486.78
2024-03-12T01:19:24.571Z,95488.81
2024-03-12T01:21:27.332Z,95488.22
2024-03-12T01:23:30.114Z,95492.38
2024-03-12T01:25:35.718Z,95485.66
2024-03-12T01:27:39.396Z,95487.22
2024-03-12T01:29:42.515Z,95487.22
2024-03-12T01:31:46.661Z,95493.94
2024-03-12T01:33:50.407Z,95488.38
2024-03-12T01:36:06.347Z,95488.38
2024-03-12T01:38:10.005Z,95489.38
2024-03-12T01:40:21.067Z,95482.44
2024-03-12T01:42:24.914Z,95484.22
2024-03-12T01:44:26.736Z,95490.81
2024-03-12T01:46:32.461Z,95487.69
2024-03-12T01:48:36.525Z,95484.19
2024-03-12T01:50:40.470Z,95486.97
2024-03-12T01:52:44.908Z,95494.69
2024-03-12T01:54:47.625Z,95488.56
2024-03-12T01:56:50.644Z,95486.19
2024-03-12T01:58:53.437Z,95483.41
2024-03-12T02:00:56.333Z,95482.84
2024-03-12T02:03:01.123Z,95488.44
2024-03-12T02:05:06.600Z,95489.88
2024-03-12T02:07:12.814Z,95496.03
2024-03-12T02:09:16.085Z,95496.25
2024-03-12T02:11:19.096Z,95494.88
2024-03-12T02:13:22.872Z,95505.19
2024-03-12T02:15:25.881Z,95506.19
2024-03-12T02:17:28.659Z,95504.59
2024-03-12T02:19:31.372Z,95505.06
2024-03-12T02:21:35.478Z,95509.00
2024-03-12T02:23:40.149Z,95506.63
2024-03-12T02:25:44.059Z,95507.19
2024-03-12T02:27:46.954Z,95508.75
2024-03-12T02:29:49.005Z,95506.63
2024-03-12T02:31:53.483Z,95521.63
2024-03-12T02:33:57.675Z,95517.47
2024-03-12T02:36:00.846Z,95523.66
2024-03-12T02:38:03.552Z,95521.63
2024-03-12T02:40:09.727Z,95524.75
2024-03-12T02:42:12.539Z,95526.78
2024-03-12T02:44:15.236Z,95533.06
2024-03-12T02:46:17.951Z,95533.63
2024-03-12T02:48:19.694Z,95519.34
2024-03-12T02:50:23.047Z,95519.88
2024-03-12T02:52:24.801Z,95528.16
2024-03-12T02:54:27.698Z,95522.59
2024-03-12T02:56:32.042Z,95518.22
2024-03-12T02:58:34.749Z,95532.09
2024-03-12T03:00:37.731Z,95524.16
2024-03-12T03:02:39.593Z,95539.47
2024-03-12T03:04:42.387Z,95532.09
2024-03-12T03:06:45.717Z,95535.59
2024-03-12T03:08:48.547Z,95530.00
2024-03-12T03:10:50.350Z,95530.72
2024-03-12T03:12:54.468Z,95533.84
2024-03-12T03:14:57.417Z,95529.16
2024-03-12T03:17:00.306Z,95530.28
2024-03-12T03:19:03.288Z,95538.34
2024-03-12T03:21:08.422Z,95537.78
2024-03-12T03:23:11.186Z,95540.94
2024-03-12T03:25:15.010Z,95538.72
2024-03-12T03:27:18.236Z,95530.75
2024-03-12T03:29:22.489Z,95533.91
2024-03-12T03:31:26.838Z,95531.56
2024-03-12T03:33:29.726Z,95539.28
2024-03-12T03:35:32.478Z,95536.50
2024-03-12T03:37:36.523Z,95539.84
2024-03-12T03:39:39.362Z,95532.66
2024-03-12T03:41:42.118Z,95545.91
2024-03-12T03:43:44.871Z,95544.09
2024-03-12T03:45:49.073Z,95548.47
2024-03-12T03:47:52.005Z,95550.59
2024-03-12T03:49:53.874Z,95550.41
2024-03-12T03:51:56.784Z,95551.75
2024-03-12T03:54:02.064Z,95546.81
2024-03-12T03:56:06.678Z,95555.97
2024-03-12T03:58:08.718Z,95555.75
2024-03-12T04:00:16.226Z,95557.91
2024-03-12T04:02:20.902Z,95566.28
2024-03-12T04:04:23.975Z,95573.38
2024-03-12T04:06:26.850Z,95568.22
2024-03-12T04:08:31.966Z,95575.94
2024-03-12T04:10:35.176Z,95570.53
2024-03-12T04:12:37.145Z,95578.84
2024-03-12T04:14:41.862Z,95576.41
2024-03-12T04:16:44.598Z,95580.91
2024-03-12T04:18:49.497Z,95575.50
2024-03-12T04:20:54.315Z,95579.00
2024-03-12T04:22:57.247Z,95585.28
2024-03-12T04:24:59.084Z,95589.97
2024-03-12T04:27:01.827Z,95588.75
2024-03-12T04:29:04.705Z,95588.09
2024-03-12T04:31:08.279Z,95586.53
2024-03-12T04:33:11.229Z,95596.63
2024-03-12T04:35:15.354Z,95594.38
2024-03-12T04:37:17.588Z,95595.94
2024-03-12T04:39:31.873Z,95592.13
2024-03-12T04:41:34.978Z,95593.25
2024-03-12T04:43:37.758Z,95600.78
2024-03-12T04:45:42.187Z,95600.66
2024-03-12T04:47:45.985Z,95600.44
2024-03-12T04:49:49.239Z,95597.66
2024-03-12T04:51:53.556Z,95605.72
2024-03-12T04:53:55.450Z,95607.28
2024-03-12T04:55:59.080Z,95607.06
2024-03-12T04:58:02.260Z,95609.53
2024-03-12T05:00:14.552Z,95616.59
2024-03-12T05:02:17.680Z,95621.09
2024-03-12T05:04:23.882Z,95616.50
2024-03-12T05:06:27.308Z,95622.22
2024-03-12T05:08:31.432Z,95623.88
2024-03-12T05:10:34.532Z,95628.59
2024-03-12T05:12:37.314Z,95630.16
2024-03-12T05:14:40.234Z,95624.56
2024-03-12T05:16:42.952Z,95632.41
2024-03-12T05:18:45.708Z,95632.97
2024-03-12T05:20:48.452Z,95640.25
2024-03-12T05:22:51.274Z,95642.41
2024-03-12T05:24:55.698Z,95652.16
2024-03-12T05:29:03.681Z,95655.63
2024-03-12T05:31:07.006Z,95655.19
2024-03-12T05:33:16.052Z,95659.13
2024-03-12T05:35:21.121Z,95653.94
2024-03-12T05:37:30.963Z,95665.84
2024-03-12T05:39:49.300Z,95659.91
2024-03-12T05:42:07.634Z,95665.63
2024-03-12T05:44:27.881Z,95670.22
2024-03-12T05:46:48.657Z,95669.66
2024-03-12T05:48:52.355Z,95678.19
2024-03-12T05:50:56.870Z,95677.41
2024-03-12T05:52:59.632Z,95679.19
2024-03-12T05:55:02.602Z,95676.84
2024-03-12T05:57:06.904Z,95684.59
2024-03-12T05:59:09.617Z,95680.22
2024-03-12T06:01:12.744Z,95682.22
2024-03-12T06:03:15.948Z,95679.88
2024-03-12T06:05:18.947Z,95679.06
2024-03-12T06:07:21.758Z,95685.81
2024-03-12T06:09:24.516Z,95686.81
2024-03-12T06:11:27.793Z,95693.34
2024-03-12T06:13:32.086Z,95683.78
2024-03-12T06:15:34.019Z,95696.94
2024-03-12T06:17:37.984Z,95699.72
2024-03-12T06:19:41.094Z,95704.09
2024-03-12T06:21:44.330Z,95708.03
2024-03-12T06:23:47.267Z,95711.53
2024-03-12T06:25:50.168Z,95715.78
2024-03-12T06:27:53.242Z,95705.00
2024-03-12T06:29:57.334Z,95715.13
2024-03-12T06:32:00.315Z,95725.00
2024-03-12T06:34:03.390Z,95719.94
2024-03-12T06:36:06.484Z,95719.50
2024-03-12T06:38:09.254Z,95725.78
2024-03-12T06:40:18.160Z,95725.31
2024-03-12T06:42:26.387Z,95728.47
2024-03-12T06:44:29.365Z,95723.28
2024-03-12T06:46:33.540Z,95726.66
2024-03-12T06:48:37.152Z,95731.59
2024-03-12T06:50:40.637Z,95726.00
2024-03-12T06:52:42.846Z,95726.00
2024-03-12T06:54:46.171Z,95737.91
2024-03-12T06:56:48.977Z,95736.63
2024-03-12T06:58:51.688Z,95734.41
2024-03-12T07:00:55.359Z,95740.13
2024-03-12T07:03:00.054Z,95739.13
2024-03-12T07:05:04.029Z,95744.28
2024-03-12T07:07:07.236Z,95745.84
2024-03-12T07:09:13.721Z,95751.16
2024-03-12T07:11:20.258Z,95740.38
2024-03-12T07:13:24.479Z,95745.09
2024-03-12T07:15:27.359Z,95746.22
2024-03-12T07:17:31.797Z,95746.28
2024-03-12T07:19:36.210Z,95757.19
2024-03-12T07:21:40.519Z,95758.31
2024-03-12T07:23:43.452Z,95761.00
2024-03-12T07:25:46.233Z,95762.56
2024-03-12T07:27:49.944Z,95768.53
2024-03-12T07:29:52.690Z,95768.53
2024-03-12T07:31:55.583Z,95767.50
2024-03-12T07:33:58.840Z,95778.63
2024-03-12T07:36:05.189Z,95776.16
2024-03-12T07:38:08.555Z,95775.69
2024-03-12T07:40:11.095Z,95780.09
2024-03-12T07:42:19.949Z,95779.88
2024-03-12T07:44:23.511Z,95776.94
2024-03-12T07:46:26.330Z,95774.94
2024-03-12T07:48:29.111Z,95773.91
2024-03-12T07:50:34.406Z,95778.84
2024-03-12T07:52:38.522Z,95778.84
2024-03-12T07:54:41.020Z,95782.78
2024-03-12T07:56:43.730Z,95785.16
2024-03-12T07:58:47.471Z,95786.03
2024-03-12T08:00:50.619Z,95787.72
2024-03-12T08:02:53.650Z,95778.81
2024-03-12T08:04:57.746Z,95782.59
2024-03-12T08:06:59.674Z,95785.50
2024-03-12T08:09:05.192Z,95789.22
2024-03-12T08:11:07.949Z,95794.38
2024-03-12T08:13:11.339Z,95802.03
2024-03-12T08:15:14.217Z,95786.53
2024-03-12T08:17:17.238Z,95791.69
2024-03-12T08:19:20.050Z,95799.69
2024-03-12T08:21:22.778Z,95796.88
2024-03-12T08:23:28.194Z,95802.72
2024-03-12T08:25:42.240Z,95796.59
2024-03-12T08:27:53.383Z,95803.44
2024-03-12T08:29:58.220Z,95804.97
2024-03-12T08:32:01.623Z,95798.41
2024-03-12T08:34:04.662Z,95811.41
2024-03-12T08:36:07.313Z,95801.84
2024-03-12T08:38:10.356Z,95805.00
2024-03-12T08:40:15.531Z,95810.84
2024-03-12T08:42:21.169Z,95820.06
2024-03-12T08:44:23.197Z,95817.16
2024-03-12T08:46:25.983Z,95821.47
2024-03-12T08:48:28.716Z,95825.38
2024-03-12T08:50:31.499Z,95815.03
2024-03-12T08:52:36.321Z,95815.81
2024-03-12T08:54:39.143Z,95808.97
2024-03-12T08:56:44.238Z,95816.28
2024-03-12T08:58:50.343Z,95820.19
2024-03-12T09:00:53.444Z,95817.09
2024-03-12T09:02:56.706Z,95821.53
2024-03-12T09:04:59.506Z,95822.75
2024-03-12T09:07:02.737Z,95822.94
2024-03-12T09:09:06.242Z,95824.91
2024-03-12T09:11:10.708Z,95821.13
2024-03-12T09:13:13.142Z,95824.81
2024-03-12T09:15:17.480Z,95826.88
2024-03-12T09:17:20.290Z,95826.25
2024-03-12T09:19:25.962Z,95828.56
2024-03-12T09:21:29.312Z,95824.22
2024-03-12T09:23:33.683Z,95827.44
2024-03-12T09:25:37.548Z,95838.28
2024-03-12T09:27:40.723Z,95834.72
2024-03-12T09:29:42.536Z,95841.25
2024-03-12T09:31:46.643Z,95842.13
2024-03-12T09:33:48.474Z,95838.13
2024-03-12T09:35:51.460Z,95832.34
2024-03-12T09:37:53.275Z,95838.63
2024-03-12T09:39:56.215Z,95840.75
2024-03-12T09:41:59.047Z,95841.31
2024-03-12T09:44:04.920Z,95845.81
2024-03-12T09:46:10.968Z,95848.41
2024-03-12T09:48:16.587Z,95847.75
2024-03-12T09:50:20.851Z,95850.78
2024-03-12T09:52:23.780Z,95845.22
2024-03-12T09:54:28.399Z,95851.31
2024-03-12T09:56:31.270Z,95850.84
2024-03-12T09:58:34.834Z,95850.63
2024-03-12T10:00:38.074Z,95867.78
2024-03-12T10:02:41.040Z,95856.31
2024-03-12T10:04:45.156Z,95858.69
2024-03-12T10:06:50.415Z,95869.91
2024-03-12T10:08:57.174Z,95866.06
2024-03-12T10:11:03.197Z,95867.13
2024-03-12T10:13:05.612Z,95870.34
2024-03-12T10:15:10.702Z,95872.88
2024-03-12T10:17:15.430Z,95882.72
2024-03-12T10:19:19.591Z,95886.59
2024-03-12T10:21:25.125Z,95876.06
2024-03-12T10:23:29.086Z,95879.38
2024-03-12T10:25:31.318Z,95881.28
2024-03-12T10:27:34.073Z,95883.78
2024-03-12T10:29:38.098Z,95881.75
2024-03-12T10:31:45.683Z,95885.66
2024-03-12T10:33:51.010Z,95886.00
2024-03-12T10:35:54.474Z,95890.09
2024-03-12T10:37:57.557Z,95881.81
2024-03-12T10:40:15.920Z,95887.84
2024-03-12T10:42:22.565Z,95884.47
2024-03-12T10:44:25.468Z,95882.28
2024-03-12T10:46:28.264Z,95894.84
2024-03-12T10:48:31.212Z,95893.28
2024-03-12T10:50:35.536Z,95880.69
2024-03-12T10:52:38.494Z,95890.84
2024-03-12T10:54:45.715Z,95900.97
2024-03-12T10:56:51.317Z,95898.28
2024-03-12T10:58:56.008Z,95893.09
2024-03-12T11:01:00.497Z,95899.84
2024-03-12T11:03:03.357Z,95899.28
2024-03-12T11:05:07.086Z,95895.97
2024-03-12T11:07:10.100Z,95896.28
2024-03-12T11:09:19.140Z,95895.97
2024-03-12T11:11:24.277Z,95900.22
2024-03-12T11:13:28.183Z,95900.22
2024-03-12T11:15:34.366Z,95903.97
2024-03-12T11:17:36.463Z,95901.59
2024-03-12T11:19:39.358Z,95903.16
2024-03-12T11:21:42.747Z,95906.31
2024-03-12T11:23:45.778Z,95910.69
2024-03-12T11:25:51.219Z,95908.16
2024-03-12T11:28:21.393Z,95908.28
2024-03-12T11:30:30.112Z,95915.25
2024-03-12T11:32:33.304Z,95908.28
2024-03-12T11:34:37.461Z,95912.06
2024-03-12T11:36:46.672Z,95915.31
2024-03-12T11:38:48.993Z,95915.00
2024-03-12T11:40:52.429Z,95910.50
2024-03-12T11:42:56.088Z,95908.00
2024-03-12T11:45:00.228Z,95906.44
2024-03-12T11:47:03.810Z,95906.44
2024-03-12T11:49:07.376Z,95909.28
2024-03-12T11:51:13.206Z,95910.31
2024-03-12T11:53:22.144Z,95912.41
2024-03-12T11:56:02.456Z,95908.34
2024-03-12T11:58:07.470Z,95903.94
2024-03-12T12:00:13.444Z,95911.50
2024-03-12T12:02:21.386Z,95910.22
2024-03-12T12:04:24.346Z,95911.31
2024-03-12T12:06:27.194Z,95925.13
2024-03-12T12:08:31.479Z,95912.84
2024-03-12T12:10:34.504Z,95910.19
2024-03-12T12:12:37.417Z,95925.16
2024-03-12T12:14:39.455Z,95914.59
2024-03-12T12:16:43.594Z,95914.09
2024-03-12T12:18:48.502Z,95927.31
2024-03-12T12:20:50.316Z,95921.78
2024-03-12T12:22:53.181Z,95925.22
2024-03-12T12:24:57.792Z,95923.19
2024-03-12T12:27:01.680Z,95912.41
2024-03-12T12:29:05.754Z,95916.69
2024-03-12T12:31:13.033Z,95929.25
2024-03-12T12:33:17.963Z,95918.75
2024-03-12T12:35:21.692Z,95913.59
2024-03-12T12:37:25.099Z,95918.44
2024-03-12T12:39:36.708Z,95907.00
2024-03-12T12:41:47.413Z,95902.56
2024-03-12T12:43:50.640Z,95915.16
2024-03-12T12:45:56.042Z,95915.75
2024-03-12T12:47:59.969Z,95910.41
2024-03-12T12:50:04.653Z,95902.03
2024-03-12T12:52:08.152Z,95901.25
2024-03-12T12:54:11.290Z,95915.31
2024-03-12T12:56:19.820Z,95907.06
2024-03-12T12:58:25.414Z,95908.72
2024-03-12T13:00:28.501Z,95926.97
2024-03-12T13:02:31.657Z,95909.31
2024-03-12T13:04:34.422Z,95917.66
2024-03-12T13:06:42.302Z,95906.28
2024-03-12T13:08:46.893Z,95889.41
2024-03-12T13:10:56.371Z,95907.03
2024-03-12T13:12:59.201Z,95903.16
2024-03-12T13:15:02.561Z,95894.44
2024-03-12T13:17:07.117Z,95891.38
2024-03-12T13:19:09.939Z,95900.00
2024-03-12T13:21:13.480Z,95894.56
2024-03-12T13:23:18.456Z,95897.47
2024-03-12T13:25:21.804Z,95890.84
2024-03-12T13:27:24.686Z,95902.03
2024-03-12T13:29:28.979Z,95909.38
2024-03-12T13:31:31.785Z,95894.00
2024-03-12T13:33:34.754Z,95896.16
2024-03-12T13:35:36.533Z,95903.25
2024-03-12T13:37:40.420Z,95901.75
2024-03-12T13:39:44.558Z,95901.47
2024-03-12T13:41:47.422Z,95904.81
2024-03-12T13:43:50.164Z,95907.41
2024-03-12T13:45:52.234Z,95921.44
2024-03-12T13:47:56.165Z,95925.88
2024-03-12T13:49:58.989Z,95916.34
2024-03-12T13:52:01.769Z,95914.13
2024-03-12T13:54:09.131Z,95917.34
2024-03-12T13:56:13.226Z,95916.09
2024-03-12T13:58:15.065Z,95915.84
2024-03-12T14:00:19.083Z,95913.56
2024-03-12T14:02:22.360Z,95911.75
2024-03-12T14:04:28.022Z,95925.44
2024-03-12T14:06:34.055Z,95912.88
2024-03-12T14:08:36.975Z,95920.81
2024-03-12T14:10:41.331Z,95926.88
2024-03-12T14:12:47.238Z,95917.19
2024-03-12T14:14:50.019Z,95918.13
2024-03-12T14:16:53.267Z,95919.09
2024-03-12T14:18:55.998Z,95935.72
2024-03-12T14:20:59.058Z,95921.06
2024-03-12T14:23:01.866Z,95943.28
2024-03-12T14:25:06.696Z,95925.50
2024-03-12T14:27:11.129Z,95926.16
2024-03-12T14:29:15.282Z,95927.41
2024-03-12T14:31:18.200Z,95945.25
2024-03-12T14:33:21.047Z,95936.84
2024-03-12T14:35:23.842Z,95918.75
2024-03-12T14:37:26.721Z,95932.28
2024-03-12T14:39:29.466Z,95929.75
2024-03-12T14:41:33.652Z,95927.56
2024-03-12T14:43:38.168Z,95930.63
2024-03-12T14:45:43.923Z,95932.44
2024-03-12T14:47:48.159Z,95928.81
2024-03-12T14:49:50.966Z,95929.00
2024-03-12T14:51:53.742Z,95935.19
2024-03-12T14:53:56.506Z,95935.25
2024-03-12T14:56:00.741Z,95936.97
2024-03-12T14:58:03.607Z,95940.53
2024-03-12T15:00:10.603Z,95951.47
2024-03-12T15:02:15.378Z,95947.94
2024-03-12T15:04:19.878Z,95955.38
2024-03-12T15:06:21.910Z,95949.25
2024-03-12T15:08:24.751Z,95955.69
2024-03-12T15:10:27.679Z,95956.16
2024-03-12T15:12:31.510Z,95959.59
2024-03-12T15:14:34.359Z,95966.75
2024-03-12T15:16:37.713Z,95958.00
2024-03-12T15:18:41.865Z,95957.44
2024-03-12T15:20:47.288Z,95969.63
2024-03-12T15:22:50.101Z,95963.50
2024-03-12T15:24:52.954Z,95959.59
2024-03-12T15:26:58.524Z,95961.91
2024-03-12T15:29:01.280Z,95967.75
2024-03-12T15:31:05.640Z,95966.19
2024-03-12T15:33:08.702Z,95973.41
2024-03-12T15:35:13.197Z,95973.31
2024-03-12T15:37:15.953Z,95972.78
2024-03-12T15:39:19.087Z,95978.25
2024-03-12T15:41:21.840Z,95970.72
2024-03-12T15:43:23.737Z,95975.31
2024-03-12T15:45:26.767Z,95973.56
2024-03-12T15:47:30.138Z,95976.28
2024-03-12T15:49:33.117Z,95964.72
2024-03-12T15:51:37.638Z,95969.34
2024-03-12T15:53:43.576Z,95972.63
2024-03-12T15:55:47.852Z,95973.56
2024-03-12T15:57:50.749Z,95971.28
2024-03-12T15:59:53.509Z,95968.22
2024-03-12T16:01:56.453Z,95972.16
2024-03-12T16:04:00.624Z,95970.13
2024-03-12T16:06:03.312Z,95970.81
2024-03-12T16:08:09.828Z,95966.66
2024-03-12T16:10:12.871Z,95969.56
2024-03-12T16:12:15.697Z,95972.50
2024-03-12T16:14:18.455Z,95972.22
2024-03-12T16:16:21.275Z,95971.78
2024-03-12T16:18:24.774Z,95969.34
2024-03-12T16:20:27.854Z,95966.97
2024-03-12T16:22:30.643Z,95974.19
2024-03-12T16:24:33.906Z,95963.03
2024-03-12T16:26:36.685Z,95965.72
2024-03-12T16:28:40.113Z,95969.34
2024-03-12T16:30:43.208Z,95966.75
2024-03-12T16:32:45.912Z,95966.41
2024-03-12T16:34:48.834Z,95968.13
2024-03-12T16:36:52.505Z,95965.47
2024-03-12T16:38:55.603Z,95972.22
2024-03-12T16:40:59.713Z,95972.78
2024-03-12T16:43:01.566Z,95982.13
2024-03-12T16:45:06.328Z,95980.31
2024-03-12T16:47:09.093Z,95972.28
2024-03-12T16:49:12.403Z,95971.19
2024-03-12T16:51:16.198Z,95970.53
2024-03-12T16:53:19.121Z,95975.41
2024-03-12T16:55:22.453Z,95969.09
2024-03-12T16:57:28.436Z,95961.00
2024-03-12T16:59:31.798Z,95971.75
2024-03-12T17:01:37.826Z,95966.44
2024-03-12T17:03:41.612Z,95964.34
2024-03-12T17:05:44.764Z,95964.56
2024-03-12T17:07:49.510Z,95966.81
2024-03-12T17:09:53.026Z,95966.03
2024-03-12T17:11:56.302Z,95958.50
2024-03-12T17:14:03.835Z,95965.25
2024-03-12T17:16:08.182Z,95968.84
2024-03-12T17:18:11.478Z,95970.88
2024-03-12T17:20:15.208Z,95972.44
2024-03-12T17:22:17.686Z,95967.75
2024-03-12T17:24:23.283Z,95971.38
2024-03-12T17:26:26.647Z,95969.78
2024-03-12T17:28:29.926Z,95971.38
2024-03-12T17:30:36.353Z,95976.84
2024-03-12T17:32:40.566Z,95973.16
2024-03-12T17:34:44.638Z,95978.56
2024-03-12T17:36:48.731Z,95980.13
2024-03-12T17:38:52.393Z,95976.53
2024-03-12T17:40:59.632Z,95974.97
2024-03-12T17:43:03.207Z,95978.13
2024-03-12T17:45:07.526Z,95977.06
2024-03-12T17:47:15.302Z,95978.88
2024-03-12T17:49:25.698Z,95990.59
2024-03-12T17:51:29.617Z,95985.97
2024-03-12T17:53:32.873Z,95985.19
2024-03-12T17:55:37.191Z,95990.59
2024-03-12T17:57:42.393Z,95984.63
2024-03-12T17:59:45.811Z,95981.72
2024-03-12T18:01:49.165Z,95985.75
2024-03-12T18:03:53.547Z,95989.47
2024-03-12T18:05:58.061Z,95993.31
2024-03-12T18:08:03.057Z,95982.72
2024-03-12T18:10:07.634Z,95981.94
2024-03-12T18:12:13.118Z,95981.38
2024-03-12T18:14:16.469Z,95978.00
2024-03-12T18:16:18.453Z,95978.56
2024-03-12T18:18:21.351Z,95974.41
2024-03-12T18:20:31.061Z,95982.94
2024-03-12T18:22:34.188Z,95978.44
2024-03-12T18:24:38.782Z,95979.47
2024-03-12T18:26:43.787Z,95981.03
2024-03-12T18:28:47.071Z,95974.28
2024-03-12T18:30:50.313Z,95984.63
2024-03-12T18:32:55.249Z,95981.50
2024-03-12T18:34:58.376Z,95985.56
2024-03-12T18:37:06.099Z,95978.25
2024-03-12T18:39:10.763Z,95982.88
2024-03-12T18:41:15.187Z,95983.09
2024-03-12T18:43:18.065Z,95981.28
2024-03-12T18:45:23.631Z,95985.69
2024-03-12T18:47:27.112Z,95982.28
2024-03-12T18:49:30.169Z,95981.28
2024-03-12T18:51:36.168Z,95978.47
2024-03-12T18:53:41.134Z,95974.09
2024-03-12T18:55:45.938Z,95980.84
2024-03-12T18:57:49.323Z,95979.81
2024-03-12T18:59:52.598Z,95979.25
2024-03-12T19:02:05.398Z,95976.09
2024-03-12T19:04:08.810Z,95979.72
2024-03-12T19:06:19.081Z,95982.53
2024-03-12T19:08:30.094Z,95976.25
2024-03-12T19:10:34.575Z,95981.06
2024-03-12T19:12:40.197Z,95971.97
2024-03-12T19:14:44.689Z,95979.41
2024-03-12T19:16:51.186Z,95978.06
2024-03-12T19:18:54.095Z,95981.88
2024-03-12T19:20:57.314Z,95980.88
2024-03-12T19:23:00.754Z,95984.47
2024-03-12T19:25:03.594Z,95982.31
2024-03-12T19:27:17.074Z,95979.72
2024-03-12T19:29:24.534Z,95983.34
2024-03-12T19:31:27.920Z,95980.22
2024-03-12T19:33:34.220Z,95983.03
2024-03-12T19:35:38.673Z,95984.03
2024-03-12T19:37:43.058Z,95987.41
2024-03-12T19:39:46.438Z,95984.81
2024-03-12T19:41:49.828Z,95990.00
2024-03-12T19:43:55.392Z,95987.97
2024-03-12T19:45:59.998Z,95991.78
2024-03-12T19:48:03.287Z,95983.81
2024-03-12T19:50:07.660Z,95990.78
2024-03-12T19:52:11.493Z,95983.81
2024-03-12T19:54:17.146Z,95985.38
2024-03-12T19:56:19.961Z,95978.63
2024-03-12T19:58:22.922Z,95985.59
2024-03-12T20:00:30.598Z,95984.25
2024-03-12T20:02:33.822Z,95984.25
2024-03-12T20:04:38.028Z,95990.88
2024-03-12T20:06:42.059Z,95985.81
2024-03-12T20:08:48.260Z,95984.25
2024-03-12T20:10:51.435Z,95987.84
2024-03-12T20:12:56.475Z,95987.84
2024-03-12T20:14:59.907Z,95988.63
2024-03-12T20:17:04.705Z,95986.28
2024-03-12T20:19:07.619Z,95987.84
2024-03-12T20:21:09.750Z,95985.25
2024-03-12T20:23:12.737Z,95988.97
2024-03-12T20:25:17.065Z,95987.97
2024-03-12T20:27:20.674Z,95989.53
2024-03-12T20:29:23.616Z,95986.94
2024-03-12T20:31:26.743Z,95986.94
2024-03-12T20:33:30.231Z,95986.16
2024-03-12T20:35:33.597Z,95988.41
2024-03-12T20:37:36.834Z,95982.69
2024-03-12T20:39:41.209Z,95985.47
2024-03-12T20:41:44.065Z,95985.13
2024-03-12T20:43:45.935Z,95976.84
2024-03-12T20:45:48.981Z,95980.44
2024-03-12T20:47:51.897Z,95977.50
2024-03-12T20:49:56.396Z,95970.53
2024-03-12T20:51:59.225Z,95966.16
2024-03-12T20:54:04.194Z,95962.78
2024-03-12T20:56:06.415Z,95963.78
2024-03-12T20:58:09.419Z,95967.38
2024-03-12T21:00:19.332Z,95970.97
2024-03-12T21:02:23.407Z,95967.81
2024-03-12T21:04:26.971Z,95961.06
2024-03-12T21:06:32.243Z,95956.81
2024-03-12T21:08:39.221Z,95952.00
2024-03-12T21:10:44.565Z,95959.19
2024-03-12T21:12:49.647Z,95959.97
2024-03-12T21:14:52.792Z,95951.19
2024-03-12T21:16:55.845Z,95951.19
2024-03-12T21:18:59.919Z,95948.03
2024-03-12T21:21:02.981Z,95955.25
2024-03-12T21:23:09.314Z,95950.06
2024-03-12T21:25:12.557Z,95950.06
2024-03-12T21:27:15.394Z,95954.66
2024-03-12T21:29:19.844Z,95948.50
2024-03-12T21:31:23.040Z,95943.53
2024-03-12T21:33:25.843Z,95942.53
2024-03-12T21:35:29.998Z,95945.34
2024-03-12T21:37:33.000Z,95938.28
2024-03-12T21:39:37.058Z,95950.41
2024-03-12T21:41:39.843Z,95950.41
2024-03-12T21:43:42.692Z,95949.41
2024-03-12T21:45:46.222Z,95953.00
2024-03-12T21:47:49.485Z,95950.94
2024-03-12T21:49:51.336Z,95936.22
2024-03-12T21:51:54.595Z,95940.59
2024-03-12T21:53:57.991Z,95932.31
2024-03-12T21:56:02.353Z,95930.97
2024-03-12T21:58:06.618Z,95930.97
2024-03-12T22:00:12.191Z,95929.16
2024-03-12T22:02:15.974Z,95929.16
2024-03-12T22:04:18.806Z,95918.81
2024-03-12T22:06:23.040Z,95930.38
2024-03-12T22:08:25.769Z,95929.16
2024-03-12T22:10:28.846Z,95926.00
2024-03-12T22:12:32.196Z,95914.09
2024-03-12T22:14:35.039Z,95920.84
2024-03-12T22:16:39.333Z,95911.06
2024-03-12T22:18:42.777Z,95912.84
2024-03-12T22:20:45.664Z,95910.06
2024-03-12T22:22:49.337Z,95916.00
2024-03-12T22:24:51.331Z,95901.38
2024-03-12T22:26:54.331Z,95904.53
2024-03-12T22:28:58.577Z,95905.75
2024-03-12T22:31:00.627Z,95908.47
2024-03-12T22:33:04.389Z,95903.31
2024-03-12T22:35:08.059Z,95898.78
2024-03-12T22:37:11.278Z,95901.81
2024-03-12T22:39:14.724Z,95898.44
2024-03-12T22:41:18.296Z,95895.09
2024-03-12T22:43:23.041Z,95896.91
2024-03-12T22:45:27.497Z,95888.34
2024-03-12T22:47:31.373Z,95889.16
2024-03-12T22:49:34.517Z,95890.69
2024-03-12T22:51:37.668Z,95881.94
2024-03-12T22:53:46.339Z,95880.34
2024-03-12T22:55:49.317Z,95878.56
2024-03-12T22:57:52.543Z,95879.59
2024-03-12T22:59:54.815Z,95871.59
2024-03-12T23:02:01.924Z,95874.97
2024-03-12T23:04:06.592Z,95875.97
2024-03-12T23:06:10.086Z,95873.63
2024-03-12T23:08:20.274Z,95863.28
2024-03-12T23:10:22.823Z,95861.72
2024-03-12T23:12:25.626Z,95864.53
2024-03-12T23:14:28.513Z,95863.75
2024-03-12T23:16:31.399Z,95859.56
2024-03-12T23:18:37.448Z,95853.63
2024-03-12T23:20:40.540Z,95855.41
2024-03-12T23:22:43.327Z,95855.41
2024-03-12T23:24:46.352Z,95853.28
2024-03-12T23:26:51.159Z,95845.97
2024-03-12T23:28:54.440Z,95847.78
2024-03-12T23:30:58.037Z,95847.22
2024-03-12T23:33:00.149Z,95840.25
2024-03-12T23:35:04.277Z,95839.13
2024-03-12T23:37:10.082Z,95834.19
2024-03-12T23:39:16.210Z,95831.38
2024-03-12T23:41:19.105Z,95832.03
2024-03-12T23:43:22.254Z,95829.13
2024-03-12T23:45:25.175Z,95831.13
2024-03-12T23:47:28.227Z,95827.56
2024-03-12T23:49:31.390Z,95818.44
2024-03-12T23:51:35.535Z,95815.50
2024-03-12T23:53:37.616Z,95821.69
2024-03-12T23:55:40.439Z,95822.81
2024-03-12T23:57:43.792Z,95825.41
2024-03-12T23:59:47.113Z,95821.00
